createdAt,value
2022-08-09T00:02:20.931Z,69.98
2022-08-09T00:07:20.887Z,69.98
2022-08-09T00:12:22.823Z,69.80
2022-08-09T00:18:10.937Z,70.17
2022-08-09T00:22:20.883Z,70.10
2022-08-09T00:27:20.911Z,70.68
2022-08-09T00:32:25.389Z,70.78
2022-08-09T00:37:20.941Z,71.00
2022-08-09T00:44:16.858Z,71.00
2022-08-09T00:47:20.914Z,73.12
2022-08-09T00:52:20.890Z,72.47
2022-08-09T00:57:24.796Z,72.47
2022-08-09T01:02:20.920Z,72.34
2022-08-09T01:07:20.926Z,72.09
2022-08-09T01:12:20.903Z,72.09
2022-08-09T01:17:20.965Z,72.16
2022-08-09T01:22:20.909Z,72.17
2022-08-09T01:27:20.938Z,72.17
2022-08-09T01:32:30.308Z,72.45
2022-08-09T01:37:42.862Z,72.58
2022-08-09T01:42:20.899Z,72.57
2022-08-09T01:47:21.021Z,72.84
2022-08-09T01:52:20.913Z,73.64
2022-08-09T01:57:20.949Z,73.53
2022-08-09T02:02:20.964Z,74.15
2022-08-09T02:08:41.254Z,73.77
2022-08-09T02:12:21.333Z,74.12
2022-08-09T02:17:59.776Z,74.96
2022-08-09T02:22:31.670Z,73.29
2022-08-09T02:27:21.372Z,73.79
2022-08-09T02:32:20.979Z,73.94
2022-08-09T02:37:20.985Z,74.51
2022-08-09T02:42:24.753Z,74.88
2022-08-09T02:47:20.981Z,74.74
2022-08-09T02:52:20.941Z,74.62
2022-08-09T02:57:23.465Z,75.90
2022-08-09T03:02:21.004Z,75.28
2022-08-09T03:07:21.081Z,74.28
2022-08-09T03:12:20.941Z,74.55
2022-08-09T03:17:26.529Z,74.55
2022-08-09T03:22:25.467Z,75.50
2022-08-09T03:27:21.717Z,75.91
2022-08-09T03:32:21.021Z,76.97
2022-08-09T03:37:56.619Z,76.69
2022-08-09T03:42:20.946Z,77.02
2022-08-09T03:47:21.007Z,76.89
2022-08-09T03:52:20.969Z,77.02
2022-08-09T03:57:21.335Z,76.78
2022-08-09T04:02:26.870Z,76.92
2022-08-09T04:12:30.956Z,76.89
2022-08-09T04:17:21.043Z,76.91
2022-08-09T04:22:21.028Z,76.70
2022-08-09T04:27:22.115Z,76.27
2022-08-09T04:32:31.666Z,75.87
2022-08-09T04:37:20.991Z,76.15
2022-08-09T04:42:21.070Z,75.30
2022-08-09T04:47:21.016Z,72.91
2022-08-09T04:52:26.160Z,73.41
2022-08-09T04:57:23.838Z,73.27
2022-08-09T05:02:21.061Z,73.27
2022-08-09T05:07:21.010Z,71.44
2022-08-09T05:12:22.599Z,71.12
2022-08-09T05:18:39.272Z,69.35
2022-08-09T05:22:33.527Z,64.82
2022-08-09T05:27:21.025Z,59.22
2022-08-09T05:32:21.061Z,59.22
2022-08-09T05:37:21.025Z,54.39
2022-08-09T05:42:33.405Z,52.00
2022-08-09T05:47:21.701Z,49.99
2022-08-09T05:52:21.096Z,47.63
2022-08-09T05:57:21.028Z,46.24
2022-08-09T06:02:21.090Z,46.24
2022-08-09T06:07:22.055Z,44.06
2022-08-09T06:12:21.066Z,43.41
2022-08-09T06:17:21.104Z,43.41
2022-08-09T06:22:28.919Z,42.89
2022-08-09T06:27:21.066Z,42.59
2022-08-09T06:32:53.195Z,45.76
2022-08-09T06:37:21.146Z,49.73
2022-08-09T06:42:24.862Z,51.65
2022-08-09T06:47:21.111Z,51.68
2022-08-09T06:52:23.547Z,51.58
2022-08-09T06:57:25.787Z,47.82
2022-08-09T07:02:21.198Z,47.82
2022-08-09T07:07:59.749Z,40.11
2022-08-09T07:12:21.138Z,40.63
2022-08-09T07:17:21.473Z,37.32
2022-08-09T07:22:34.795Z,36.40
2022-08-09T07:27:26.890Z,36.40
2022-08-09T07:32:21.126Z,39.76
2022-08-09T07:37:22.055Z,43.83
2022-08-09T07:42:21.155Z,43.98
2022-08-09T07:47:21.282Z,39.83
2022-08-09T07:52:21.144Z,38.42
2022-08-09T07:57:21.109Z,36.39
2022-08-09T08:02:21.401Z,36.39
2022-08-09T08:08:43.258Z,33.25
2022-08-09T08:12:27.545Z,33.44
2022-08-09T08:17:35.293Z,33.44
2022-08-09T08:22:24.249Z,33.42
2022-08-09T08:27:21.119Z,33.55
2022-08-09T08:32:28.736Z,32.61
2022-08-09T08:37:21.156Z,33.74
2022-08-09T08:42:24.279Z,32.66
2022-08-09T08:47:21.244Z,31.88
2022-08-09T08:52:57.889Z,33.91
2022-08-09T08:57:21.129Z,34.54
2022-08-09T09:02:31.408Z,35.03
2022-08-09T09:07:21.151Z,35.03
2022-08-09T09:12:21.806Z,35.52
2022-08-09T09:17:21.179Z,35.06
2022-08-09T09:22:26.605Z,34.75
2022-08-09T09:28:04.396Z,36.73
2022-08-09T09:32:34.384Z,36.73
2022-08-09T09:37:21.173Z,35.35
2022-08-09T09:42:21.203Z,35.96
2022-08-09T09:47:21.346Z,36.82
2022-08-09T09:52:36.322Z,36.82
2022-08-09T09:58:02.377Z,36.47
2022-08-09T10:02:21.259Z,36.86
2022-08-09T10:07:21.180Z,37.13
2022-08-09T10:12:28.071Z,37.13
2022-08-09T10:17:50.875Z,38.36
2022-08-09T10:22:29.451Z,38.36
2022-08-09T10:27:28.657Z,38.55
2022-08-09T10:32:38.579Z,38.83
2022-08-09T10:37:21.202Z,39.29
2022-08-09T10:48:16.430Z,38.08
2022-08-09T10:52:21.199Z,38.08
2022-08-09T10:57:21.256Z,38.20
2022-08-09T11:03:07.355Z,37.97
2022-08-09T11:07:21.281Z,39.04
2022-08-09T11:12:21.213Z,39.04
2022-08-09T11:17:21.346Z,38.36
2022-08-09T11:22:24.354Z,38.53
2022-08-09T11:27:52.766Z,38.05
2022-08-09T11:32:21.257Z,37.95
2022-08-09T11:37:21.269Z,38.14
2022-08-09T11:42:21.242Z,38.14
2022-08-09T11:47:21.315Z,38.63
2022-08-09T11:53:04.205Z,38.38
2022-08-09T11:57:28.361Z,39.18
2022-08-09T12:02:37.470Z,38.44
2022-08-09T12:07:21.310Z,38.28
2022-08-09T12:12:29.175Z,38.22
2022-08-09T12:17:28.328Z,38.56
2022-08-09T12:22:21.287Z,38.56
2022-08-09T12:28:59.582Z,37.90
2022-08-09T12:32:21.363Z,37.58
2022-08-09T12:37:24.506Z,37.66
2022-08-09T12:42:21.283Z,36.90
2022-08-09T12:47:22.640Z,36.88
2022-08-09T12:52:21.271Z,38.15
2022-08-09T12:57:21.348Z,38.01
2022-08-09T13:02:21.344Z,38.19
2022-08-09T13:07:28.413Z,37.92
2022-08-09T13:12:30.681Z,37.74
2022-08-09T13:17:44.001Z,37.86
2022-08-09T13:22:45.600Z,38.55
2022-08-09T13:27:21.348Z,38.92
2022-08-09T13:32:25.586Z,39.12
2022-08-09T13:37:50.411Z,39.04
2022-08-09T13:42:21.378Z,39.20
2022-08-09T13:47:33.434Z,38.94
2022-08-09T13:52:21.327Z,38.80
2022-08-09T13:57:37.412Z,38.80
2022-08-09T14:02:26.058Z,37.70
2022-08-09T14:07:21.508Z,37.79
2022-08-09T14:12:21.318Z,37.67
2022-08-09T14:17:22.496Z,37.99
2022-08-09T14:22:21.339Z,37.99
2022-08-09T14:27:21.398Z,38.61
2022-08-09T14:32:28.705Z,33.12
2022-08-09T14:37:21.368Z,29.72
2022-08-09T14:42:30.530Z,26.98
2022-08-09T14:47:39.894Z,26.12
2022-08-09T14:52:21.377Z,27.82
2022-08-09T14:57:21.388Z,26.17
2022-08-09T15:02:21.388Z,26.29
2022-08-09T15:07:21.371Z,28.04
2022-08-09T15:12:21.354Z,28.04
2022-08-09T15:17:21.383Z,34.95
2022-08-09T15:22:22.022Z,36.20
2022-08-09T15:27:21.431Z,36.49
2022-08-09T15:32:28.692Z,36.68
2022-08-09T15:37:21.422Z,36.35
2022-08-09T15:42:21.813Z,36.80
2022-08-09T15:47:22.770Z,37.23
2022-08-09T15:52:21.381Z,37.21
2022-08-09T15:57:34.212Z,37.42
2022-08-09T16:02:27.190Z,37.40
2022-08-09T16:07:21.407Z,37.22
2022-08-09T16:12:21.382Z,37.30
2022-08-09T16:17:22.141Z,37.41
2022-08-09T16:22:21.398Z,37.03
2022-08-09T16:27:21.437Z,37.48
2022-08-09T16:32:34.229Z,38.07
2022-08-09T16:37:54.527Z,38.10
2022-08-09T16:42:23.880Z,38.16
2022-08-09T16:48:41.088Z,38.11
2022-08-09T16:52:21.408Z,38.55
2022-08-09T16:57:21.437Z,38.39
2022-08-09T17:02:23.218Z,38.52
2022-08-09T17:08:46.595Z,38.96
2022-08-09T17:12:21.423Z,38.98
2022-08-09T17:17:27.065Z,38.85
2022-08-09T17:22:25.042Z,38.88
2022-08-09T17:27:21.503Z,38.88
2022-08-09T17:32:26.690Z,39.45
2022-08-09T17:37:21.472Z,39.67
2022-08-09T17:42:42.189Z,39.83
2022-08-09T17:47:21.492Z,39.90
2022-08-09T17:52:22.506Z,39.99
2022-08-09T17:58:02.502Z,40.10
2022-08-09T18:02:34.894Z,40.10
2022-08-09T18:07:22.995Z,40.49
2022-08-09T18:12:21.453Z,40.73
2022-08-09T18:17:27.103Z,40.73
2022-08-09T18:22:21.459Z,39.85
2022-08-09T18:28:03.073Z,39.59
2022-08-09T18:32:21.574Z,39.74
2022-08-09T18:37:47.571Z,38.54
2022-08-09T18:42:21.506Z,38.25
2022-08-09T18:47:24.042Z,38.25
2022-08-09T18:52:24.635Z,38.29
2022-08-09T18:57:22.314Z,38.05
2022-08-09T19:02:28.793Z,37.89
2022-08-09T19:07:21.531Z,37.16
2022-08-09T19:12:21.715Z,36.80
2022-08-09T19:17:21.634Z,36.53
2022-08-09T19:22:21.520Z,36.19
2022-08-09T19:27:21.521Z,36.13
2022-08-09T19:32:21.551Z,35.99
2022-08-09T19:37:21.543Z,36.09
2022-08-09T19:42:28.168Z,36.01
2022-08-09T19:47:23.347Z,35.72
2022-08-09T19:52:21.686Z,35.77
2022-08-09T19:57:25.689Z,35.84
2022-08-09T20:04:12.666Z,36.20
2022-08-09T20:07:22.566Z,36.20
2022-08-09T20:12:29.813Z,36.70
2022-08-09T20:17:21.576Z,36.70
2022-08-09T20:22:21.546Z,36.83
2022-08-09T20:27:21.564Z,36.73
2022-08-09T20:32:33.178Z,36.73
2022-08-09T20:37:22.549Z,37.07
2022-08-09T20:42:21.533Z,37.02
2022-08-09T20:47:36.328Z,37.02
2022-08-09T20:52:21.561Z,36.91
2022-08-09T20:57:21.599Z,36.61
2022-08-09T21:02:21.653Z,36.70
2022-08-09T21:07:30.096Z,36.15
2022-08-09T21:12:21.565Z,35.91
2022-08-09T21:18:20.658Z,36.23
2022-08-09T21:22:35.882Z,36.72
2022-08-09T21:27:50.950Z,36.53
2022-08-09T21:32:33.297Z,36.55
2022-08-09T21:37:21.622Z,36.76
2022-08-09T21:42:28.551Z,36.90
2022-08-09T21:47:21.643Z,36.64
2022-08-09T21:52:21.580Z,36.94
2022-08-09T21:57:37.693Z,37.00
2022-08-09T22:02:29.472Z,37.00
2022-08-09T22:07:35.572Z,37.33
2022-08-09T22:12:24.787Z,38.02
2022-08-09T22:17:21.664Z,38.42
2022-08-09T22:22:21.593Z,37.90
2022-08-09T22:27:21.631Z,38.54
2022-08-09T22:32:30.287Z,38.46
2022-08-09T22:37:21.629Z,38.61
2022-08-09T22:42:23.476Z,39.18
2022-08-09T22:48:12.117Z,39.04
2022-08-09T22:52:21.623Z,39.11
2022-08-09T22:57:21.734Z,39.43
2022-08-09T23:02:21.785Z,39.99
2022-08-09T23:08:21.045Z,39.99
2022-08-09T23:12:21.617Z,40.04
2022-08-09T23:17:21.745Z,40.12
2022-08-09T23:22:21.649Z,40.45
2022-08-09T23:27:21.674Z,40.67
2022-08-09T23:32:21.758Z,40.85
2022-08-09T23:37:25.393Z,41.17
2022-08-09T23:42:21.656Z,42.01
2022-08-09T23:47:21.661Z,42.34
2022-08-09T23:52:24.500Z,42.77
2022-08-09T23:57:22.009Z,43.00
